Time;durP1;ratioP1;P1;durP2;ratioP2;P2;SDS_P1;SDS_P2;PMS_P1;PMS_P2;Temp;Humidity;BMP_temperature;BMP_pressure;BME280_temperature;BME280_humidity;BME280_pressure;Samples;Min_cycle;Max_cycle;Signal;HPM_P1;HPM_P2
2023/06/18 00:01:29;;;;;;;;;;;;;;;22.83;65.20;100329.16;7396006;19;1677;-81
2023/06/18 00:03:57;;;;;;;;;;;;;;;22.80;65.54;100351.06;7396624;19;1854;-81
2023/06/18 00:06:26;;;;;;;;;;;;;;;22.82;65.41;100339.13;7393151;19;1874;-82
2023/06/18 00:08:56;;;;;;;;;;;;;;;22.86;64.96;100342.31;7397930;19;1711;-81
2023/06/18 00:11:25;;;;;;;;;;;;;;;22.81;64.99;100344.69;7396504;19;1894;-81
2023/06/18 00:13:53;;;;;;;;;;;;;;;22.86;64.95;100341.47;7395109;19;1530;-80
2023/06/18 00:16:21;;;;;;;;;;;;;;;22.73;65.36;100344.69;7397796;19;1392;-81
2023/06/18 00:18:50;;;;;;;;;;;;;;;22.82;65.12;100332.91;7398370;19;1538;-80
2023/06/18 00:21:18;;;;;;;;;;;;;;;22.80;65.30;100329.50;7394556;19;1679;-81
2023/06/18 00:23:46;;;;;;;;;;;;;;;22.79;65.14;100333.22;7403061;19;1015;-81
2023/06/18 00:26:18;;;;;;;;;;;;;;;22.79;64.92;100342.16;7403508;19;1855;-81
2023/06/18 00:28:47;;;;;;;;;;;;;;;22.75;65.18;100331.88;7406561;19;1544;-81
2023/06/18 00:31:15;;;;;;;;;;;;;;;22.86;64.74;100345.03;7405450;19;1517;-81
2023/06/18 00:33:45;;;;;;;;;;;;;;;22.82;64.99;100349.06;7400480;19;1874;-81
2023/06/18 00:36:15;;;;;;;;;;;;;;;22.80;65.13;100341.16;7399666;19;1511;-81
2023/06/18 00:38:46;;;;;;;;;;;;;;;22.74;65.24;100340.97;7402936;19;1627;-81
2023/06/18 00:41:16;;;;;;;;;;;;;;;22.74;65.21;100347.22;7400795;19;1547;-81
2023/06/18 00:43:47;;;;;;;;;;;;;;;22.72;64.92;100349.25;7402180;19;1730;-81
2023/06/18 00:46:17;;;;;;;;;;;;;;;22.69;65.02;100348.75;7400440;19;1941;-81
2023/06/18 00:48:45;;;;;;;;;;;;;;;22.67;64.80;100345.38;7402582;19;1619;-81
2023/06/18 00:51:16;;;;;;;;;;;;;;;22.77;64.48;100343.34;7405463;19;1133;-81
2023/06/18 00:53:45;;;;;;;;;;;;;;;22.69;64.69;100341.50;7404214;19;1884;-81
2023/06/18 00:56:14;;;;;;;;;;;;;;;22.66;65.01;100374.19;7402374;19;1906;-81
2023/06/18 00:58:42;;;;;;;;;;;;;;;22.66;65.04;100344.53;7404370;19;1517;-82
2023/06/18 01:01:14;;;;;;;;;;;;;;;22.71;64.62;100341.31;7402293;19;1710;-81
2023/06/18 01:03:43;;;;;;;;;;;;;;;22.68;64.88;100361.38;7403502;19;1509;-81
2023/06/18 01:06:17;;;;;;;;;;;;;;;22.70;64.56;100350.41;7398714;19;1837;-81
2023/06/18 01:08:48;;;;;;;;;;;;;;;22.72;64.94;100362.72;7400897;19;1903;-81
2023/06/18 01:11:18;;;;;;;;;;;;;;;22.78;64.47;100345.00;7402747;19;1632;-80
2023/06/18 01:13:47;;;;;;;;;;;;;;;22.75;64.42;100358.84;7401729;19;1833;-81
2023/06/18 01:16:24;;;;;;;;;;;;;;;22.74;64.10;100359.84;7401460;19;1847;-81
2023/06/18 01:18:52;;;;;;;;;;;;;;;22.74;64.25;100368.78;7401059;19;1833;-81
2023/06/18 01:21:24;;;;;;;;;;;;;;;22.70;64.28;100369.28;7401179;19;1628;-81
2023/06/18 01:23:58;;;;;;;;;;;;;;;22.71;64.05;100369.13;7401239;19;1719;-80
2023/06/18 01:26:29;;;;;;;;;;;;;;;22.68;64.06;100366.78;7402677;19;1851;-81
2023/06/18 01:28:58;;;;;;;;;;;;;;;22.64;64.19;100357.31;7400781;19;1927;-80
2023/06/18 01:31:36;;;;;;;;;;;;;;;22.67;64.49;100372.31;7400420;19;1876;-81
2023/06/18 01:34:04;;;;;;;;;;;;;;;22.66;64.54;100368.78;7399075;19;1470;-81
2023/06/18 01:36:47;;;;;;;;;;;;;;;22.66;64.49;100374.19;7402457;19;1404;-81
2023/06/18 01:39:20;;;;;;;;;;;;;;;22.64;64.81;100377.03;7400349;19;1599;-81
2023/06/18 01:41:51;;;;;;;;;;;;;;;22.69;64.54;100370.31;7402177;19;1882;-80
2023/06/18 01:44:22;;;;;;;;;;;;;;;22.58;64.94;100364.25;7401515;19;1623;-81
2023/06/18 01:46:55;;;;;;;;;;;;;;;22.57;65.04;100367.09;7400511;19;1856;-82
2023/06/18 01:49:24;;;;;;;;;;;;;;;22.58;65.26;100380.41;7402889;19;1767;-81
2023/06/18 01:51:53;;;;;;;;;;;;;;;22.60;65.25;100389.19;7401552;19;1551;-81
2023/06/18 01:54:23;;;;;;;;;;;;;;;22.69;64.57;100370.31;7400806;19;1587;-80
2023/06/18 01:56:51;;;;;;;;;;;;;;;22.76;64.47;100368.59;7402258;19;999;-81
2023/06/18 01:59:20;;;;;;;;;;;;;;;22.73;64.82;100374.34;7402095;19;1918;-81
2023/06/18 02:01:48;;;;;;;;;;;;;;;22.74;64.58;100371.47;7400694;19;1639;-81
2023/06/18 02:04:19;;;;;;;;;;;;;;;22.68;64.95;100368.59;7400397;19;1871;-81
2023/06/18 02:06:47;;;;;;;;;;;;;;;22.61;65.13;100377.38;7397273;19;1856;-80
2023/06/18 02:09:16;;;;;;;;;;;;;;;22.70;64.97;100372.84;7399441;19;1598;-81
2023/06/18 02:11:44;;;;;;;;;;;;;;;22.62;64.66;100362.91;7400642;19;996;-81
2023/06/18 02:14:12;;;;;;;;;;;;;;;22.64;65.01;100371.66;7400982;19;1863;-81
2023/06/18 02:16:41;;;;;;;;;;;;;;;22.68;64.96;100371.28;7399343;19;1515;-81
2023/06/18 02:19:09;;;;;;;;;;;;;;;22.70;64.45;100366.56;7398655;19;1926;-81
2023/06/18 02:21:40;;;;;;;;;;;;;;;22.69;64.36;100383.78;7400032;19;1124;-81
2023/06/18 02:24:08;;;;;;;;;;;;;;;22.67;64.23;100383.09;7397312;19;1944;-81
2023/06/18 02:26:37;;;;;;;;;;;;;;;22.66;63.96;100378.72;7399284;19;1841;-81
2023/06/18 02:29:05;;;;;;;;;;;;;;;22.73;63.72;100385.97;7398731;19;1584;-80
2023/06/18 02:31:34;;;;;;;;;;;;;;;22.73;63.71;100383.25;7396845;19;1553;-81
2023/06/18 02:34:02;;;;;;;;;;;;;;;22.58;64.02;100369.63;7397725;19;1567;-80
2023/06/18 02:36:32;;;;;;;;;;;;;;;22.56;64.74;100376.19;7399302;19;1752;-80
2023/06/18 02:39:03;;;;;;;;;;;;;;;22.58;65.04;100380.41;7400034;19;1489;-81
2023/06/18 02:41:31;;;;;;;;;;;;;;;22.63;64.64;100383.44;7398716;19;1812;-81
2023/06/18 02:43:59;;;;;;;;;;;;;;;22.65;64.63;100383.28;7396929;19;1008;-81
2023/06/18 02:46:28;;;;;;;;;;;;;;;22.61;64.98;100385.44;7396616;19;1884;-81
2023/06/18 02:48:56;;;;;;;;;;;;;;;22.60;64.78;100393.69;7396762;19;1913;-81
2023/06/18 02:51:25;;;;;;;;;;;;;;;22.72;64.21;100388.81;7398348;19;1156;-79
2023/06/18 02:53:53;;;;;;;;;;;;;;;22.61;64.55;100395.41;7398992;19;1572;-79
2023/06/18 02:56:26;;;;;;;;;;;;;;;22.54;64.77;100378.22;7398156;19;1357;-79
2023/06/18 02:58:56;;;;;;;;;;;;;;;22.59;64.37;100384.78;7397137;19;1827;-79
2023/06/18 03:01:24;;;;;;;;;;;;;;;22.67;64.11;100404.66;7399692;19;1835;-79
2023/06/18 03:03:53;;;;;;;;;;;;;;;22.55;64.68;100399.59;7399489;19;1730;-79
2023/06/18 03:06:23;;;;;;;;;;;;;;;22.57;64.15;100400.28;7396525;19;1849;-79
2023/06/18 03:08:51;;;;;;;;;;;;;;;22.58;64.42;100390.34;7398181;19;1494;-79
2023/06/18 03:11:19;;;;;;;;;;;;;;;22.57;64.42;100402.97;7398522;19;1126;-79
2023/06/18 03:13:51;;;;;;;;;;;;;;;22.64;63.94;100401.31;7397017;19;1934;-80
2023/06/18 03:16:19;;;;;;;;;;;;;;;22.59;64.36;100413.59;7396257;19;1835;-79
2023/06/18 03:18:47;;;;;;;;;;;;;;;22.55;64.38;100413.06;7397395;19;1407;-80
2023/06/18 03:21:16;;;;;;;;;;;;;;;22.50;64.51;100410.06;7394040;19;1913;-80
2023/06/18 03:23:44;;;;;;;;;;;;;;;22.53;64.04;100409.72;7396952;19;1529;-79
2023/06/18 03:26:12;;;;;;;;;;;;;;;22.57;64.02;100421.84;7396836;19;1933;-79
2023/06/18 03:28:41;;;;;;;;;;;;;;;22.50;64.62;100420.84;7397450;19;1569;-79
2023/06/18 03:31:13;;;;;;;;;;;;;;;22.66;64.08;100421.84;7398410;19;1843;-79
2023/06/18 03:33:41;;;;;;;;;;;;;;;22.57;64.29;100416.44;7394834;19;1828;-79
2023/06/18 03:36:12;;;;;;;;;;;;;;;22.55;64.55;100413.06;7396093;19;1615;-79
2023/06/18 03:38:40;;;;;;;;;;;;;;;22.55;64.52;100412.25;7398238;19;1094;-79
2023/06/18 03:41:09;;;;;;;;;;;;;;;22.59;64.04;100413.59;7393071;19;1572;-80
2023/06/18 03:43:37;;;;;;;;;;;;;;;22.54;64.22;100410.53;7396966;19;1824;-79
2023/06/18 03:46:05;;;;;;;;;;;;;;;22.62;64.31;100418.63;7395628;19;1814;-79
2023/06/18 03:48:36;;;;;;;;;;;;;;;22.64;64.10;100422.00;7393281;19;1857;-79
2023/06/18 03:51:05;;;;;;;;;;;;;;;22.66;64.02;100416.44;7395342;19;1560;-79
2023/06/18 03:53:36;;;;;;;;;;;;;;;22.61;63.84;100416.97;7396172;19;1834;-79
2023/06/18 03:56:05;;;;;;;;;;;;;;;22.66;63.84;100425.41;7397491;19;1810;-79
2023/06/18 03:58:33;;;;;;;;;;;;;;;22.60;64.02;100415.25;7404703;19;1575;-80
2023/06/18 04:01:01;;;;;;;;;;;;;;;22.57;64.05;100416.44;7403061;19;1802;-80
2023/06/18 04:03:30;;;;;;;;;;;;;;;22.65;63.98;100418.31;7399798;19;1541;-81
2023/06/18 04:06:01;;;;;;;;;;;;;;;22.57;64.04;100415.63;7402806;19;1747;-81
2023/06/18 04:08:29;;;;;;;;;;;;;;;22.53;64.11;100415.09;7400149;19;1841;-80
2023/06/18 04:10:58;;;;;;;;;;;;;;;22.53;64.26;100409.72;7401475;19;1595;-80
2023/06/18 04:13:28;;;;;;;;;;;;;;;22.58;63.73;100415.44;7400518;19;1526;-80
2023/06/18 04:15:56;;;;;;;;;;;;;;;22.62;63.76;100421.31;7401446;19;1748;-79
2023/06/18 04:18:25;;;;;;;;;;;;;;;22.61;63.73;100425.03;7400752;19;1534;-79
2023/06/18 04:20:53;;;;;;;;;;;;;;;22.57;63.79;100438.00;7403619;19;1465;-79
2023/06/18 04:23:24;;;;;;;;;;;;;;;22.58;63.69;100439.72;7402523;19;1946;-79
2023/06/18 04:25:52;;;;;;;;;;;;;;;22.72;63.24;100434.63;7403420;19;1728;-80
2023/06/18 04:28:22;;;;;;;;;;;;;;;22.69;63.68;100430.44;7401404;19;1831;-79
2023/06/18 04:30:51;;;;;;;;;;;;;;;22.56;64.09;100435.47;7399448;19;1682;-80
2023/06/18 04:33:19;;;;;;;;;;;;;;;22.67;63.82;100447.78;7399019;19;1639;-80
2023/06/18 04:35:47;;;;;;;;;;;;;;;22.61;64.13;100444.75;7402140;19;1481;-80
2023/06/18 04:38:16;;;;;;;;;;;;;;;22.64;64.17;100449.81;7402866;19;1502;-79
2023/06/18 04:40:47;;;;;;;;;;;;;;;22.63;64.11;100445.41;7397432;19;1592;-78
2023/06/18 04:43:17;;;;;;;;;;;;;;;22.70;63.69;100440.22;7401626;19;1740;-78
2023/06/18 04:45:46;;;;;;;;;;;;;;;22.73;63.78;100441.72;7403187;19;1689;-78
2023/06/18 04:48:14;;;;;;;;;;;;;;;22.68;63.94;100444.06;7396688;19;1836;-78
2023/06/18 04:50:42;;;;;;;;;;;;;;;22.72;63.88;100437.34;7401754;19;1106;-78
2023/06/18 04:53:11;;;;;;;;;;;;;;;22.75;63.81;100447.78;7401907;19;1601;-78
2023/06/18 04:55:39;;;;;;;;;;;;;;;22.74;64.03;100464.97;7399711;19;1887;-78
2023/06/18 04:58:10;;;;;;;;;;;;;;;22.79;63.80;100459.94;7400622;19;1537;-79
2023/06/18 05:00:39;;;;;;;;;;;;;;;22.77;64.42;100467.34;7401982;19;1711;-77
2023/06/18 05:03:07;;;;;;;;;;;;;;;22.78;64.81;100477.09;7399167;19;1891;-79
2023/06/18 05:05:35;;;;;;;;;;;;;;;22.82;63.92;100481.16;7402575;19;1752;-78
2023/06/18 05:08:04;;;;;;;;;;;;;;;23.00;63.41;100476.44;7400353;19;1834;-78
2023/06/18 05:10:33;;;;;;;;;;;;;;;22.93;64.40;100475.41;7403549;19;1600;-78
2023/06/18 05:13:02;;;;;;;;;;;;;;;22.86;64.19;100490.59;7404615;19;1832;-79
2023/06/18 05:15:33;;;;;;;;;;;;;;;22.94;63.88;100482.50;7405524;19;977;-78
2023/06/18 05:18:01;;;;;;;;;;;;;;;22.90;64.14;100486.56;7406281;19;1006;-79
2023/06/18 05:20:30;;;;;;;;;;;;;;;22.95;63.86;100478.78;7403509;19;1954;-78
2023/06/18 05:22:58;;;;;;;;;;;;;;;22.93;63.92;100475.41;7408207;19;1953;-78
2023/06/18 05:25:26;;;;;;;;;;;;;;;22.94;64.09;100487.91;7404868;19;2045;-78
2023/06/18 05:27:54;;;;;;;;;;;;;;;22.93;63.94;100486.22;7410712;19;1851;-78
2023/06/18 05:30:23;;;;;;;;;;;;;;;22.99;64.20;100496.31;7413576;19;1373;-77
2023/06/18 05:32:54;;;;;;;;;;;;;;;22.95;64.03;100505.75;7411292;19;1167;-78
2023/06/18 05:35:22;;;;;;;;;;;;;;;22.99;64.17;100507.09;7407237;19;1620;-77
2023/06/18 05:37:51;;;;;;;;;;;;;;;22.95;63.97;100511.16;7411807;19;1732;-78
2023/06/18 05:40:20;;;;;;;;;;;;;;;22.95;64.31;100505.75;7414441;19;1811;-76
2023/06/18 05:42:48;;;;;;;;;;;;;;;22.95;64.14;100516.53;7413817;19;1748;-78
2023/06/18 05:45:17;;;;;;;;;;;;;;;22.99;63.89;100517.88;7405079;19;1727;-77
2023/06/18 05:47:45;;;;;;;;;;;;;;;23.11;63.87;100521.13;7400915;19;1850;-78
2023/06/18 05:50:16;;;;;;;;;;;;;;;23.15;63.87;100521.66;7401727;19;1078;-78
2023/06/18 05:52:44;;;;;;;;;;;;;;;23.05;63.77;100515.59;7397546;19;1933;-79
2023/06/18 05:55:13;;;;;;;;;;;;;;;23.08;63.58;100526.88;7396426;19;1675;-79
2023/06/18 05:57:41;;;;;;;;;;;;;;;23.05;63.85;100534.47;7399192;19;1724;-79
2023/06/18 06:00:11;;;;;;;;;;;;;;;23.13;63.71;100523.66;7395821;19;1958;-78
2023/06/18 06:02:39;;;;;;;;;;;;;;;23.10;63.77;100537.47;7398828;19;1647;-78
2023/06/18 06:05:08;;;;;;;;;;;;;;;22.86;66.52;100541.84;7397583;19;1815;-79
2023/06/18 06:07:39;;;;;;;;;;;;;;;23.09;64.21;100533.94;7397954;19;1880;-79
2023/06/18 06:10:08;;;;;;;;;;;;;;;23.23;64.07;100529.72;7400483;19;1504;-78
2023/06/18 06:12:36;;;;;;;;;;;;;;;23.16;64.48;100534.13;7398494;19;1224;-79
2023/06/18 06:15:05;;;;;;;;;;;;;;;23.14;64.73;100537.00;7397481;19;1633;-78
2023/06/18 06:17:33;;;;;;;;;;;;;;;23.29;63.89;100539.84;7396850;19;1672;-78
2023/06/18 06:20:02;;;;;;;;;;;;;;;23.37;63.83;100539.00;7399600;19;1767;-78
2023/06/18 06:22:31;;;;;;;;;;;;;;;23.33;64.17;100535.78;7394997;19;1512;-78
2023/06/18 06:25:02;;;;;;;;;;;;;;;23.35;64.50;100547.25;7394763;19;1597;-78
2023/06/18 06:27:30;;;;;;;;;;;;;;;23.40;64.13;100542.22;7396240;19;1880;-78
2023/06/18 06:30:01;;;;;;;;;;;;;;;23.34;64.57;100542.06;7398186;19;1509;-79
2023/06/18 06:32:29;;;;;;;;;;;;;;;23.30;64.86;100533.44;7396238;19;1484;-78
2023/06/18 06:34:59;;;;;;;;;;;;;;;23.32;64.64;100539.50;7398455;19;1583;-78
2023/06/18 06:37:27;;;;;;;;;;;;;;;23.18;65.22;100540.19;7394626;19;1586;-77
2023/06/18 06:39:56;;;;;;;;;;;;;;;23.26;65.32;100542.91;7397363;19;1272;-78
2023/06/18 06:42:26;;;;;;;;;;;;;;;23.43;64.40;100536.44;7396790;19;1643;-78
2023/06/18 06:44:55;;;;;;;;;;;;;;;23.32;65.23;100541.38;7396594;19;1369;-79
2023/06/18 06:47:23;;;;;;;;;;;;;;;23.33;64.94;100545.75;7397650;19;1858;-78
2023/06/18 06:49:51;;;;;;;;;;;;;;;23.35;64.88;100549.94;7395770;19;1519;-78
2023/06/18 06:52:20;;;;;;;;;;;;;;;23.25;65.26;100543.88;7396895;19;1596;-78
2023/06/18 06:54:49;;;;;;;;;;;;;;;23.33;64.97;100546.59;7395977;19;1480;-77
2023/06/18 06:57:17;;;;;;;;;;;;;;;23.29;66.03;100558.72;7396928;19;1580;-77
2023/06/18 06:59:48;;;;;;;;;;;;;;;23.35;65.51;100571.53;7396035;19;1417;-77
2023/06/18 07:02:20;;;;;;;;;;;;;;;22.87;64.76;100548.91;7393453;19;1423;-77
2023/06/18 07:04:48;;;;;;;;;;;;;;;22.92;64.40;100567.25;7394483;19;1502;-78
2023/06/18 07:07:18;;;;;;;;;;;;;;;22.96;65.80;100558.69;7395107;19;1493;-77
2023/06/18 07:09:46;;;;;;;;;;;;;;;23.08;65.19;100563.78;7395208;19;1846;-77
2023/06/18 07:12:14;;;;;;;;;;;;;;;23.06;66.56;100571.19;7397012;19;1249;-78
2023/06/18 07:14:43;;;;;;;;;;;;;;;23.06;66.34;100572.06;7396497;19;1478;-77
2023/06/18 07:17:14;;;;;;;;;;;;;;;23.21;65.51;100569.53;7395822;19;1541;-77
2023/06/18 07:19:42;;;;;;;;;;;;;;;23.25;66.07;100567.34;7398950;19;1827;-77
2023/06/18 07:22:11;;;;;;;;;;;;;;;23.31;65.32;100554.00;7395924;19;1791;-77
2023/06/18 07:24:39;;;;;;;;;;;;;;;23.38;65.18;100555.03;7397151;19;1431;-77
2023/06/18 07:27:07;;;;;;;;;;;;;;;23.46;65.21;100569.50;7392585;19;1632;-77
2023/06/18 07:29:37;;;;;;;;;;;;;;;23.62;64.77;100556.03;7393353;19;1847;-77
2023/06/18 07:32:05;;;;;;;;;;;;;;;23.51;65.91;100557.19;7402853;19;1543;-77
2023/06/18 07:34:36;;;;;;;;;;;;;;;23.43;65.50;100549.94;7401245;19;1625;-78
2023/06/18 07:37:05;;;;;;;;;;;;;;;23.59;64.84;100567.13;7404465;19;1473;-77
2023/06/18 07:39:33;;;;;;;;;;;;;;;23.39;66.20;100567.50;7402072;19;1286;-77
2023/06/18 07:42:02;;;;;;;;;;;;;;;23.35;66.13;100570.69;7399167;19;1894;-77
2023/06/18 07:44:30;;;;;;;;;;;;;;;23.60;65.23;100558.88;7402126;19;1294;-77
2023/06/18 07:46:58;;;;;;;;;;;;;;;23.60;65.25;100568.84;7399508;19;1569;-77
2023/06/18 07:49:27;;;;;;;;;;;;;;;23.64;65.06;100570.19;7400634;19;1841;-77
2023/06/18 07:51:58;;;;;;;;;;;;;;;23.61;65.41;100565.13;7402372;19;1521;-77
2023/06/18 07:54:26;;;;;;;;;;;;;;;23.07;65.20;100562.09;7400581;19;1435;-77
2023/06/18 07:56:54;;;;;;;;;;;;;;;22.09;66.88;100570.69;7402199;19;1564;-77
2023/06/18 07:59:23;;;;;;;;;;;;;;;22.46;66.74;100572.22;7399687;19;1912;-77
2023/06/18 08:01:52;;;;;;;;;;;;;;;22.32;67.02;100576.34;7404062;19;1596;-77
2023/06/18 08:04:21;;;;;;;;;;;;;;;22.70;66.42;100575.00;7400404;19;1580;-77
2023/06/18 08:06:50;;;;;;;;;;;;;;;22.97;65.97;100562.22;7404445;19;1683;-77
2023/06/18 08:09:21;;;;;;;;;;;;;;;23.00;66.09;100570.84;7401062;19;1849;-77
2023/06/18 08:11:51;;;;;;;;;;;;;;;23.24;66.04;100569.19;7403376;19;1521;-78
2023/06/18 08:14:20;;;;;;;;;;;;;;;23.16;66.19;100566.50;7400809;19;1931;-78
2023/06/18 08:16:48;;;;;;;;;;;;;;;23.15;66.13;100565.63;7403883;19;1481;-78
2023/06/18 08:19:16;;;;;;;;;;;;;;;23.05;66.76;100564.13;7406361;19;1710;-78
2023/06/18 08:21:45;;;;;;;;;;;;;;;23.10;66.53;100559.91;7407887;19;1760;-78
2023/06/18 08:24:13;;;;;;;;;;;;;;;23.19;66.96;100574.25;7402512;19;1429;-78
2023/06/18 08:26:44;;;;;;;;;;;;;;;23.23;66.41;100556.72;7403999;19;1807;-77
2023/06/18 08:29:13;;;;;;;;;;;;;;;23.28;65.91;100554.34;7402379;19;1842;-76
2023/06/18 08:31:42;;;;;;;;;;;;;;;23.32;66.48;100566.50;7403888;19;1156;-77
2023/06/18 08:34:11;;;;;;;;;;;;;;;23.40;66.30;100563.78;7399694;19;1699;-77
2023/06/18 08:36:39;;;;;;;;;;;;;;;23.38;66.76;100576.63;7403632;19;1599;-78
2023/06/18 08:39:07;;;;;;;;;;;;;;;23.45;66.51;100575.94;7401356;19;1608;-78
2023/06/18 08:41:36;;;;;;;;;;;;;;;23.39;66.87;100572.88;7400636;19;1485;-78
2023/06/18 08:44:07;;;;;;;;;;;;;;;23.35;67.15;100573.41;7400521;19;1827;-77
2023/06/18 08:46:37;;;;;;;;;;;;;;;23.38;66.92;100576.63;7402448;19;1559;-78
2023/06/18 08:49:07;;;;;;;;;;;;;;;23.35;66.78;100585.03;7399640;19;2114;-78
2023/06/18 08:51:39;;;;;;;;;;;;;;;23.38;67.12;100573.06;7402527;19;1744;-78
2023/06/18 08:54:11;;;;;;;;;;;;;;;23.38;67.11;100573.91;7402493;19;1569;-78
2023/06/18 08:56:45;;;;;;;;;;;;;;;23.50;66.60;100578.97;7400254;19;1747;-78
2023/06/18 08:59:16;;;;;;;;;;;;;;;23.43;67.48;100568.84;7401987;19;1594;-78
2023/06/18 09:01:45;;;;;;;;;;;;;;;23.40;67.44;100557.56;7400591;19;1478;-78
2023/06/18 09:04:15;;;;;;;;;;;;;;;23.41;67.15;100570.03;7401444;19;1796;-78
2023/06/18 09:06:43;;;;;;;;;;;;;;;23.50;67.17;100557.38;7399528;19;1444;-77
2023/06/18 09:09:12;;;;;;;;;;;;;;;23.28;67.37;100562.47;7399283;19;1917;-78
2023/06/18 09:11:40;;;;;;;;;;;;;;;23.41;67.43;100560.06;7397967;19;1624;-78
2023/06/18 09:14:09;;;;;;;;;;;;;;;23.49;67.28;100559.22;7400649;19;1372;-78
2023/06/18 09:16:41;;;;;;;;;;;;;;;23.63;66.34;100557.69;7397700;19;1838;-78
2023/06/18 09:19:09;;;;;;;;;;;;;;;23.63;67.99;100554.97;7400735;19;1530;-78
2023/06/18 09:21:40;;;;;;;;;;;;;;;23.66;68.85;100560.06;7401498;19;1579;-78
2023/06/18 09:24:09;;;;;;;;;;;;;;;23.74;68.18;100548.41;7399549;19;1595;-78
2023/06/18 09:26:37;;;;;;;;;;;;;;;23.66;69.28;100546.56;7399859;19;1552;-78
2023/06/18 09:29:06;;;;;;;;;;;;;;;23.77;69.05;100553.44;7399983;19;1853;-78
2023/06/18 09:31:35;;;;;;;;;;;;;;;23.64;69.08;100556.69;7400219;19;1693;-78
2023/06/18 09:34:16;;;;;;;;;;;;;;;23.89;67.75;100549.38;7406772;19;1537;-77
2023/06/18 09:36:45;;;;;;;;;;;;;;;23.73;68.36;100546.72;7418342;19;1123;-78
2023/06/18 09:39:19;;;;;;;;;;;;;;;23.67;69.21;100547.41;7419200;19;1879;-78
2023/06/18 09:41:49;;;;;;;;;;;;;;;23.70;68.34;100550.59;7408612;19;1553;-77
2023/06/18 09:44:17;;;;;;;;;;;;;;;23.72;68.55;100539.63;7400687;19;1760;-77
2023/06/18 09:46:46;;;;;;;;;;;;;;;23.56;68.94;100562.09;7401812;19;1823;-77
2023/06/18 09:49:18;;;;;;;;;;;;;;;23.51;68.78;100542.88;7398140;19;1854;-77
2023/06/18 09:51:47;;;;;;;;;;;;;;;23.72;68.32;100540.47;7397363;19;1839;-77
2023/06/18 09:54:15;;;;;;;;;;;;;;;23.69;68.44;100537.25;7400413;19;1086;-76
2023/06/18 09:56:57;;;;;;;;;;;;;;;23.77;68.36;100538.09;7400006;19;1587;-77
2023/06/18 09:59:26;;;;;;;;;;;;;;;23.79;68.17;100541.47;7397384;19;1970;-77
2023/06/18 10:01:54;;;;;;;;;;;;;;;23.78;67.91;100533.56;7399401;19;1669;-77
2023/06/18 10:04:26;;;;;;;;;;;;;;;23.72;68.27;100528.84;7399461;19;1811;-77
2023/06/18 10:06:56;;;;;;;;;;;;;;;23.90;67.88;100531.34;7400275;19;1494;-77
2023/06/18 10:09:27;;;;;;;;;;;;;;;23.77;68.15;100532.72;7397997;19;1844;-77
2023/06/18 10:11:56;;;;;;;;;;;;;;;23.88;67.52;100518.00;7399701;19;1718;-78
2023/06/18 10:14:25;;;;;;;;;;;;;;;23.70;68.15;100518.19;7401229;19;1232;-77
2023/06/18 10:16:57;;;;;;;;;;;;;;;23.61;68.25;100511.97;7399401;19;1873;-77
2023/06/18 10:19:29;;;;;;;;;;;;;;;23.94;67.22;100519.19;7395873;19;2005;-76
2023/06/18 10:22:01;;;;;;;;;;;;;;;23.68;68.34;100517.53;7400364;19;1586;-77
2023/06/18 10:24:33;;;;;;;;;;;;;;;23.85;67.84;100509.41;7386052;19;1488;-77
2023/06/18 10:27:01;;;;;;;;;;;;;;;23.76;67.85;100489.69;7390243;19;1496;-77
2023/06/18 10:29:32;;;;;;;;;;;;;;;23.85;67.61;100493.22;7395719;19;1865;-77
2023/06/18 10:32:01;;;;;;;;;;;;;;;23.88;67.33;100491.00;7397219;19;1316;-77
2023/06/18 10:34:32;;;;;;;;;;;;;;;23.82;67.79;100492.53;7399618;19;1609;-77
2023/06/18 10:37:02;;;;;;;;;;;;;;;23.79;67.84;100492.03;7397564;19;1254;-77
2023/06/18 10:39:30;;;;;;;;;;;;;;;23.73;68.21;100480.03;7396742;19;1228;-77
2023/06/18 10:42:03;;;;;;;;;;;;;;;23.74;67.96;100479.03;7397853;19;1695;-79
2023/06/18 10:44:35;;;;;;;;;;;;;;;23.83;67.46;100487.97;7396830;19;1633;-77
2023/06/18 10:47:18;;;;;;;;;;;;;;;23.88;66.87;100498.28;7396617;19;1367;-77
2023/06/18 10:50:11;;;;;;;;;;;;;;;23.89;67.40;100476.47;7396548;19;1857;-77
2023/06/18 10:52:39;;;;;;;;;;;;;;;23.83;66.99;100474.47;7397321;19;1310;-77
2023/06/18 10:55:08;;;;;;;;;;;;;;;23.88;66.89;100464.00;7395791;19;1469;-77
2023/06/18 10:57:40;;;;;;;;;;;;;;;23.73;66.99;100458.44;7391105;19;1628;-77
2023/06/18 11:00:19;;;;;;;;;;;;;;;23.76;66.77;100476.16;7393345;19;1565;-78
2023/06/18 11:02:49;;;;;;;;;;;;;;;23.76;66.87;100458.09;7391934;19;1648;-77
2023/06/18 11:05:40;;;;;;;;;;;;;;;23.80;66.39;100464.88;7388227;19;1421;-77
2023/06/18 11:08:10;;;;;;;;;;;;;;;23.80;66.34;100458.63;7392806;19;1519;-77
2023/06/18 11:10:39;;;;;;;;;;;;;;;23.81;66.17;100468.41;7392964;19;1805;-77
2023/06/18 11:13:08;;;;;;;;;;;;;;;23.77;66.24;100465.22;7393553;19;1484;-77
2023/06/18 11:15:37;;;;;;;;;;;;;;;24.03;65.25;100461.38;7394129;19;1392;-76
2023/06/18 11:18:06;;;;;;;;;;;;;;;24.02;65.17;100446.22;7395395;19;1505;-77
2023/06/18 11:20:37;;;;;;;;;;;;;;;23.79;66.10;100460.47;7395455;19;1839;-76
2023/06/18 11:23:06;;;;;;;;;;;;;;;23.79;66.63;100459.63;7394837;19;1569;-77
2023/06/18 11:25:34;;;;;;;;;;;;;;;23.80;66.74;100462.16;7393171;19;1514;-77
2023/06/18 11:28:04;;;;;;;;;;;;;;;23.96;66.30;100465.84;7395757;19;1505;-77
2023/06/18 11:30:36;;;;;;;;;;;;;;;23.86;66.64;100466.03;7394511;19;1872;-78
2023/06/18 11:33:04;;;;;;;;;;;;;;;23.97;66.11;100456.69;7396611;19;1397;-78
2023/06/18 11:35:33;;;;;;;;;;;;;;;24.08;66.11;100469.81;7395767;19;1491;-77
2023/06/18 11:38:04;;;;;;;;;;;;;;;24.14;65.66;100477.22;7394572;19;1473;-78
2023/06/18 11:40:32;;;;;;;;;;;;;;;24.22;65.26;100479.88;7391961;19;1614;-78
2023/06/18 11:43:02;;;;;;;;;;;;;;;24.12;65.67;100463.03;7395923;19;1494;-78
2023/06/18 11:45:31;;;;;;;;;;;;;;;24.13;65.25;100455.78;7394761;19;1306;-78
2023/06/18 11:48:00;;;;;;;;;;;;;;;23.90;66.79;100453.88;7394203;19;1555;-78
2023/06/18 11:50:28;;;;;;;;;;;;;;;23.89;66.35;100456.72;7394560;19;1860;-77
2023/06/18 11:52:57;;;;;;;;;;;;;;;23.98;66.17;100464.63;7395709;19;1565;-77
2023/06/18 11:55:29;;;;;;;;;;;;;;;24.07;65.78;100451.91;7394222;19;1517;-78
2023/06/18 11:58:00;;;;;;;;;;;;;;;24.12;65.33;100454.09;7396031;19;1557;-77
2023/06/18 12:00:28;;;;;;;;;;;;;;;24.24;65.13;100447.28;7393904;19;1436;-77
2023/06/18 12:02:57;;;;;;;;;;;;;;;24.14;64.95;100455.59;7394039;19;1297;-78
2023/06/18 12:05:25;;;;;;;;;;;;;;;24.07;65.49;100446.50;7393281;19;1539;-77
2023/06/18 12:07:53;;;;;;;;;;;;;;;23.81;66.01;100463.00;7394981;19;1545;-77
2023/06/18 12:10:22;;;;;;;;;;;;;;;23.76;65.96;100449.19;7393827;19;1867;-77
2023/06/18 12:12:58;;;;;;;;;;;;;;;23.86;66.10;100454.41;7392838;19;1507;-77
2023/06/18 12:15:28;;;;;;;;;;;;;;;23.69;66.25;100458.97;7394044;19;1939;-78
2023/06/18 12:17:58;;;;;;;;;;;;;;;23.80;65.89;100445.97;7397957;19;1524;-77
2023/06/18 12:20:27;;;;;;;;;;;;;;;23.97;65.54;100454.84;7401472;19;1429;-78
2023/06/18 12:22:56;;;;;;;;;;;;;;;23.75;65.76;100450.19;7402500;19;1399;-78
2023/06/18 12:25:27;;;;;;;;;;;;;;;23.81;65.51;100426.06;7403419;19;1355;-78
2023/06/18 12:27:58;;;;;;;;;;;;;;;23.92;65.14;100445.59;7403741;19;1535;-78
2023/06/18 12:30:31;;;;;;;;;;;;;;;24.07;64.54;100418.66;7401201;19;1862;-78
2023/06/18 12:33:03;;;;;;;;;;;;;;;24.20;64.08;100435.97;7404891;19;1275;-78
2023/06/18 12:35:34;;;;;;;;;;;;;;;23.80;64.80;100440.56;7403107;19;1451;-79
2023/06/18 12:38:03;;;;;;;;;;;;;;;23.77;65.08;100430.09;7401745;19;1459;-78
2023/06/18 12:40:31;;;;;;;;;;;;;;;23.99;64.35;100433.06;7420149;19;1705;-78
2023/06/18 12:43:09;;;;;;;;;;;;;;;23.78;65.24;100429.09;7423941;19;1420;-79
2023/06/18 12:45:39;;;;;;;;;;;;;;;24.13;64.39;100434.16;7425605;19;1523;-79
2023/06/18 12:48:17;;;;;;;;;;;;;;;24.07;64.38;100433.00;7424629;19;1484;-78
2023/06/18 12:50:46;;;;;;;;;;;;;;;24.05;64.43;100424.25;7419654;19;1822;-79
2023/06/18 12:53:16;;;;;;;;;;;;;;;24.04;64.16;100413.63;7419170;19;1450;-78
2023/06/18 12:55:45;;;;;;;;;;;;;;;23.92;64.69;100432.09;7418619;19;1271;-78
2023/06/18 12:58:21;;;;;;;;;;;;;;;23.99;64.36;100423.13;7417882;19;1469;-77
2023/06/18 13:00:50;;;;;;;;;;;;;;;23.97;64.15;100418.88;7434181;19;1242;-78